createdAt,value
2022-09-23T00:01:11.259Z,85.89
2022-09-23T00:03:41.450Z,89.50
2022-09-23T00:06:13.729Z,87.41
2022-09-23T00:08:41.329Z,84.71
2022-09-23T00:11:20.804Z,85.19
2022-09-23T00:13:49.613Z,85.27
2022-09-23T00:16:25.451Z,86.55
2022-09-23T00:18:52.432Z,84.50
2022-09-23T00:21:20.529Z,89.38
2022-09-23T00:23:47.921Z,91.37
2022-09-23T00:26:17.023Z,88.15
2022-09-23T00:28:43.574Z,90.06
2022-09-23T00:31:12.849Z,90.68
2022-09-23T00:33:40.666Z,92.04
2022-09-23T00:36:11.125Z,85.31
2022-09-23T00:38:38.371Z,89.34
2022-09-23T00:41:06.396Z,86.26
2022-09-23T00:43:58.314Z,86.54
2022-09-23T00:46:38.933Z,90.14
2022-09-23T00:49:30.080Z,92.19
2022-09-23T00:51:58.049Z,87.70
2022-09-23T00:54:27.525Z,89.85
2022-09-23T00:56:55.477Z,88.56
2022-09-23T00:59:24.420Z,88.53
2022-09-23T01:01:54.916Z,91.85
2022-09-23T01:04:26.065Z,90.48
2022-09-23T01:06:52.811Z,89.64
2022-09-23T01:09:20.603Z,91.00
2022-09-23T01:12:19.569Z,90.17
2022-09-23T01:15:00.479Z,91.57
2022-09-23T01:17:32.791Z,90.52
2022-09-23T01:20:30.626Z,86.56
2022-09-23T01:23:40.574Z,88.17
2022-09-23T01:26:25.911Z,90.50
2022-09-23T01:29:15.179Z,89.76
2022-09-23T01:31:56.730Z,88.66
2022-09-23T01:34:32.749Z,89.64
2022-09-23T01:37:11.706Z,91.25
2022-09-23T01:39:47.962Z,88.60
2022-09-23T01:42:39.469Z,89.48
2022-09-23T01:45:09.714Z,89.98
2022-09-23T01:47:43.324Z,90.08
2022-09-23T01:50:36.542Z,88.66
2022-09-23T01:53:10.892Z,91.92
2022-09-23T01:55:42.927Z,87.73
2022-09-23T01:58:21.454Z,88.61
2022-09-23T02:01:00.053Z,88.46
2022-09-23T02:03:51.938Z,92.84
2022-09-23T02:06:26.012Z,92.28
2022-09-23T02:09:07.133Z,96.17
2022-09-23T02:11:36.416Z,89.48
2022-09-23T02:14:15.533Z,90.34
2022-09-23T02:16:50.466Z,91.68
2022-09-23T02:19:50.750Z,89.91
2022-09-23T02:22:26.349Z,89.64
2022-09-23T02:24:54.760Z,91.71
2022-09-23T02:27:33.110Z,92.38
2022-09-23T02:30:02.659Z,92.13
2022-09-23T02:32:42.101Z,91.51
2022-09-23T02:35:26.882Z,92.00
2022-09-23T02:38:19.735Z,93.68
2022-09-23T02:41:10.459Z,89.60
2022-09-23T02:44:07.641Z,90.73
2022-09-23T02:46:35.408Z,90.25
2022-09-23T02:49:29.524Z,91.30
2022-09-23T02:51:59.884Z,90.41
2022-09-23T02:54:29.245Z,90.67
2022-09-23T02:56:57.378Z,91.07
2022-09-23T02:59:24.470Z,92.78
2022-09-23T03:02:00.049Z,91.48
2022-09-23T03:04:32.350Z,91.56
2022-09-23T03:07:20.047Z,90.21
2022-09-23T03:10:07.278Z,90.66
2022-09-23T03:13:04.849Z,91.78
2022-09-23T03:15:57.368Z,91.11
2022-09-23T03:18:37.045Z,93.46
2022-09-23T03:21:17.254Z,89.81
2022-09-23T03:23:46.487Z,88.81
2022-09-23T03:26:20.869Z,92.51
2022-09-23T03:28:47.705Z,93.37
2022-09-23T03:31:15.537Z,94.44
2022-09-23T03:33:47.244Z,92.25
2022-09-23T03:36:37.570Z,90.08
2022-09-23T03:39:12.906Z,93.85
2022-09-23T03:41:51.716Z,92.98
2022-09-23T03:44:19.692Z,91.11
2022-09-23T03:46:49.859Z,90.00
2022-09-23T03:49:21.280Z,93.51
2022-09-23T03:51:47.841Z,92.71
2022-09-23T03:54:14.457Z,94.82
2022-09-23T03:56:40.963Z,92.47
2022-09-23T03:59:07.621Z,90.19
2022-09-23T04:01:34.190Z,88.52
2022-09-23T04:04:00.979Z,88.92
2022-09-23T04:06:27.447Z,91.14
2022-09-23T04:08:53.998Z,92.53
2022-09-23T04:11:20.660Z,93.28
2022-09-23T04:13:47.162Z,90.92
2022-09-23T04:16:13.722Z,89.88
2022-09-23T04:18:40.243Z,91.20
2022-09-23T04:21:06.759Z,92.50
2022-09-23T04:23:33.316Z,93.07
2022-09-23T04:25:59.778Z,90.59
2022-09-23T04:28:26.482Z,91.20
2022-09-23T04:30:54.027Z,94.37
2022-09-23T04:33:20.581Z,95.41
2022-09-23T04:35:51.767Z,91.47
2022-09-23T04:38:18.868Z,93.45
2022-09-23T04:40:45.490Z,94.33
2022-09-23T04:43:15.776Z,94.49
2022-09-23T04:45:43.802Z,90.50
2022-09-23T04:48:11.618Z,91.61
2022-09-23T04:50:38.525Z,93.32
2022-09-23T04:53:05.582Z,93.32
2022-09-23T04:55:32.274Z,93.81
2022-09-23T04:57:58.862Z,95.86
2022-09-23T05:00:27.018Z,93.89
2022-09-23T05:02:53.631Z,91.95
2022-09-23T05:05:21.177Z,92.39
2022-09-23T05:07:48.514Z,94.12
2022-09-23T05:10:16.015Z,94.34
2022-09-23T05:12:42.801Z,92.54
2022-09-23T05:15:09.749Z,93.47
2022-09-23T05:17:37.394Z,95.73
2022-09-23T05:20:04.999Z,96.12
2022-09-23T05:22:31.829Z,95.77
2022-09-23T05:25:00.306Z,96.52
2022-09-23T05:27:27.256Z,96.94
2022-09-23T05:29:53.825Z,97.29
2022-09-23T05:32:21.164Z,95.57
2022-09-23T05:34:47.850Z,92.88
2022-09-23T05:37:14.347Z,97.91
2022-09-23T05:39:41.150Z,96.60
2022-09-23T05:42:08.032Z,95.78
2022-09-23T05:44:34.498Z,95.06
2022-09-23T05:47:01.136Z,93.27
2022-09-23T05:49:42.859Z,95.01
2022-09-23T05:52:14.248Z,94.76
2022-09-23T05:54:41.256Z,92.88
2022-09-23T05:57:08.037Z,95.73
2022-09-23T05:59:34.626Z,97.30
2022-09-23T06:02:01.652Z,95.59
2022-09-23T06:04:28.276Z,93.75
2022-09-23T06:06:59.214Z,92.77
2022-09-23T06:09:29.291Z,94.30
2022-09-23T06:11:57.433Z,91.56
2022-09-23T06:14:23.976Z,91.81
2022-09-23T06:16:50.636Z,91.88
2022-09-23T06:19:17.378Z,90.13
2022-09-23T06:21:43.947Z,89.44
2022-09-23T06:24:14.152Z,92.03
2022-09-23T06:26:43.445Z,90.69
2022-09-23T06:29:11.985Z,89.36
2022-09-23T06:31:42.171Z,88.08
2022-09-23T06:34:14.158Z,85.69
2022-09-23T06:36:44.945Z,83.99
2022-09-23T06:39:13.585Z,83.35
2022-09-23T06:41:40.266Z,84.48
2022-09-23T06:44:06.951Z,83.96
2022-09-23T06:46:33.747Z,83.53
2022-09-23T06:49:02.135Z,83.31
2022-09-23T06:51:28.725Z,84.31
2022-09-23T06:53:56.026Z,84.36
2022-09-23T06:56:23.684Z,84.38
2022-09-23T06:58:52.522Z,85.23
2022-09-23T07:01:19.781Z,85.53
2022-09-23T07:03:48.307Z,85.70
2022-09-23T07:06:16.095Z,85.84
2022-09-23T07:08:45.212Z,85.79
2022-09-23T07:11:13.299Z,85.86
2022-09-23T07:13:41.386Z,86.28
2022-09-23T07:16:09.961Z,86.58
2022-09-23T07:18:37.631Z,87.58
2022-09-23T07:21:07.154Z,85.91
2022-09-23T07:23:34.018Z,88.35
2022-09-23T07:26:01.295Z,86.30
2022-09-23T07:28:29.094Z,85.19
2022-09-23T07:31:00.438Z,87.18
2022-09-23T07:33:33.068Z,86.25
2022-09-23T07:36:05.119Z,85.94
2022-09-23T07:38:32.022Z,85.85
2022-09-23T07:41:08.137Z,84.95
2022-09-23T07:43:35.145Z,84.37
2022-09-23T07:46:05.858Z,84.66
2022-09-23T07:48:34.670Z,85.62
2022-09-23T07:51:36.607Z,84.81
2022-09-23T07:54:07.413Z,85.45
2022-09-23T07:56:35.930Z,84.74
2022-09-23T07:59:05.533Z,85.39
2022-09-23T08:01:41.487Z,83.53
2022-09-23T08:04:21.067Z,85.93
2022-09-23T08:06:50.722Z,84.79
2022-09-23T08:09:21.846Z,83.53
2022-09-23T08:11:49.509Z,83.17
2022-09-23T08:14:18.001Z,83.24
2022-09-23T08:16:47.192Z,83.99
2022-09-23T08:19:15.048Z,82.86
2022-09-23T08:21:42.459Z,82.70
2022-09-23T08:24:13.517Z,82.08
2022-09-23T08:26:40.245Z,82.93
2022-09-23T08:29:10.361Z,82.60
2022-09-23T08:31:37.008Z,83.55
2022-09-23T08:34:03.634Z,82.42
2022-09-23T08:36:31.318Z,82.33
2022-09-23T08:38:58.243Z,81.61
2022-09-23T08:41:38.896Z,81.63
2022-09-23T08:44:29.120Z,82.21
2022-09-23T08:47:16.555Z,81.55
2022-09-23T08:49:59.156Z,80.59
2022-09-23T08:52:47.752Z,81.98
2022-09-23T08:55:15.429Z,81.82
2022-09-23T08:58:24.005Z,80.97
2022-09-23T09:01:21.950Z,80.83
2022-09-23T09:04:00.957Z,81.05
2022-09-23T09:06:52.512Z,79.92
2022-09-23T09:09:23.751Z,79.92
2022-09-23T09:11:58.121Z,80.50
2022-09-23T09:14:57.287Z,79.98
2022-09-23T09:17:38.355Z,79.73
2022-09-23T09:20:38.123Z,78.28
2022-09-23T09:23:40.596Z,79.25
2022-09-23T09:26:15.705Z,79.35
2022-09-23T09:28:48.897Z,79.26
2022-09-23T09:31:37.986Z,78.60
2022-09-23T09:34:12.061Z,78.63
2022-09-23T09:36:48.312Z,78.60
2022-09-23T09:39:15.716Z,78.69
2022-09-23T09:41:47.443Z,78.19
2022-09-23T09:44:31.656Z,77.03
2022-09-23T09:47:23.977Z,76.91
2022-09-23T09:49:59.205Z,77.48
2022-09-23T09:52:29.561Z,77.19
2022-09-23T09:55:13.778Z,76.83
2022-09-23T09:57:44.100Z,75.68
2022-09-23T10:00:26.427Z,77.39
2022-09-23T10:03:14.722Z,76.74
2022-09-23T10:05:44.981Z,77.37
2022-09-23T10:09:02.086Z,75.26
2022-09-23T10:11:30.064Z,75.31
2022-09-23T10:14:02.428Z,75.80
2022-09-23T10:16:31.839Z,76.30
2022-09-23T10:19:00.806Z,77.76
2022-09-23T10:21:36.339Z,76.51
2022-09-23T10:24:06.608Z,77.96
2022-09-23T10:26:43.256Z,76.85
2022-09-23T10:29:31.347Z,75.35
2022-09-23T10:32:37.339Z,75.55
2022-09-23T10:35:10.655Z,76.72
2022-09-23T10:37:52.873Z,75.98
2022-09-23T10:44:13.086Z,72.62
2022-09-23T10:47:17.963Z,71.48
2022-09-23T10:49:58.802Z,74.24
2022-09-23T10:52:43.483Z,74.98
2022-09-23T10:55:09.982Z,74.58
2022-09-23T10:58:04.374Z,72.23
2022-09-23T11:00:43.214Z,73.28
2022-09-23T11:03:34.924Z,73.17
2022-09-23T11:06:13.657Z,74.21
2022-09-23T11:08:53.471Z,75.69
2022-09-23T11:11:29.803Z,73.64
2022-09-23T11:14:41.205Z,71.77
2022-09-23T11:17:14.969Z,74.91
2022-09-23T11:20:03.447Z,72.61
2022-09-23T11:22:57.367Z,73.38
2022-09-23T11:25:36.257Z,74.81
2022-09-23T11:28:17.809Z,69.81
2022-09-23T11:30:56.098Z,73.73
2022-09-23T11:33:28.778Z,74.96
2022-09-23T11:36:12.609Z,69.25
2022-09-23T11:38:45.840Z,73.00
2022-09-23T11:41:17.957Z,69.72
2022-09-23T11:43:53.676Z,72.17
2022-09-23T11:46:27.539Z,70.98
2022-09-23T11:49:05.018Z,72.68
2022-09-23T11:51:44.911Z,72.25
2022-09-23T11:54:22.809Z,71.53
2022-09-23T11:56:57.036Z,71.97
2022-09-23T11:59:38.424Z,70.61
2022-09-23T12:02:20.730Z,72.39
2022-09-23T12:05:12.863Z,69.31
2022-09-23T12:08:02.882Z,70.82
2022-09-23T12:10:51.711Z,71.71
2022-09-23T12:13:35.316Z,71.66
2022-09-23T12:16:25.989Z,71.58
2022-09-23T12:19:19.061Z,69.21
2022-09-23T12:22:00.835Z,67.15
2022-09-23T12:24:41.022Z,70.03
2022-09-23T12:27:12.192Z,69.65
2022-09-23T12:29:41.407Z,73.11
2022-09-23T12:32:16.804Z,71.77
2022-09-23T12:34:49.203Z,71.66
2022-09-23T12:37:43.341Z,68.24
2022-09-23T12:40:27.595Z,69.87
2022-09-23T12:42:54.686Z,72.88
2022-09-23T12:45:32.495Z,72.42
2022-09-23T12:48:01.050Z,73.01
2022-09-23T12:50:50.827Z,70.63
2022-09-23T12:53:35.806Z,70.52
2022-09-23T12:56:18.745Z,71.48
2022-09-23T12:58:48.332Z,71.30
2022-09-23T13:01:17.182Z,70.87
2022-09-23T13:04:11.510Z,71.60
2022-09-23T13:06:40.566Z,70.34
2022-09-23T13:09:22.592Z,70.32
2022-09-23T13:11:50.367Z,71.91
2022-09-23T13:14:26.778Z,71.21
2022-09-23T13:16:57.185Z,68.12
2022-09-23T13:19:27.023Z,70.78
2022-09-23T13:21:53.629Z,71.52
2022-09-23T13:24:22.953Z,70.38
2022-09-23T13:26:57.302Z,71.16
2022-09-23T13:29:28.038Z,72.05
2022-09-23T13:31:58.078Z,71.00
2022-09-23T13:34:30.549Z,72.45
2022-09-23T13:36:57.342Z,70.82
2022-09-23T13:39:26.511Z,67.84
2022-09-23T13:41:58.946Z,70.48
2022-09-23T13:44:25.575Z,70.85
2022-09-23T13:46:58.095Z,70.70
2022-09-23T13:49:34.051Z,70.74
2022-09-23T13:52:02.621Z,65.66
2022-09-23T13:54:48.809Z,66.62
2022-09-23T13:57:33.998Z,69.93
2022-09-23T14:00:02.317Z,69.71
2022-09-23T14:02:29.012Z,69.70
2022-09-23T14:04:58.978Z,68.71
2022-09-23T14:07:26.061Z,69.44
2022-09-23T14:09:55.731Z,66.26
2022-09-23T14:12:22.750Z,69.91
2022-09-23T14:14:52.798Z,70.92
2022-09-23T14:17:23.025Z,67.16
2022-09-23T14:19:50.470Z,63.03
2022-09-23T14:22:25.681Z,68.88
2022-09-23T14:24:53.965Z,69.83
2022-09-23T14:27:40.481Z,63.30
2022-09-23T14:30:19.086Z,69.75
2022-09-23T14:32:47.921Z,69.20
2022-09-23T14:35:42.794Z,67.51
2022-09-23T14:38:27.956Z,70.42
2022-09-23T14:41:15.772Z,70.61
2022-09-23T14:43:59.191Z,69.46
2022-09-23T14:46:28.975Z,69.65
2022-09-23T14:49:01.076Z,69.96
2022-09-23T14:52:00.526Z,66.73
2022-09-23T14:54:40.557Z,68.69
2022-09-23T14:57:25.419Z,69.28
2022-09-23T15:00:14.206Z,69.43
2022-09-23T15:02:45.561Z,69.93
2022-09-23T15:05:15.651Z,70.54
2022-09-23T15:07:46.387Z,69.98
2022-09-23T15:10:31.827Z,69.73
2022-09-23T15:13:17.040Z,66.14
2022-09-23T15:15:44.295Z,69.86
2022-09-23T15:18:22.785Z,67.84
2022-09-23T15:20:55.360Z,68.04
2022-09-23T15:23:43.223Z,69.77
2022-09-23T15:26:15.968Z,70.20
2022-09-23T15:28:43.844Z,70.19
2022-09-23T15:31:18.797Z,70.32
2022-09-23T15:33:47.764Z,69.40
2022-09-23T15:36:23.020Z,70.14
2022-09-23T15:38:49.786Z,71.33
2022-09-23T15:41:17.372Z,70.69
2022-09-23T15:43:44.623Z,70.65
2022-09-23T15:46:19.356Z,71.01
2022-09-23T15:49:08.991Z,70.77
2022-09-23T15:51:37.386Z,71.02
2022-09-23T15:54:05.991Z,70.84
2022-09-23T15:56:33.462Z,71.97
2022-09-23T15:59:00.915Z,70.95
2022-09-23T16:01:30.650Z,71.44
2022-09-23T16:03:57.590Z,71.87
2022-09-23T16:06:24.409Z,72.34
2022-09-23T16:08:52.255Z,72.66
2022-09-23T16:11:24.927Z,72.37
2022-09-23T16:13:51.867Z,72.69
2022-09-23T16:16:22.276Z,72.86
2022-09-23T16:18:51.307Z,71.40
2022-09-23T16:21:21.366Z,72.59
2022-09-23T16:23:49.977Z,72.51
2022-09-23T16:26:20.852Z,72.70
2022-09-23T16:28:50.510Z,72.68
2022-09-23T16:31:17.520Z,72.87
2022-09-23T16:33:45.232Z,72.79
2022-09-23T16:36:21.173Z,72.71
2022-09-23T16:38:48.201Z,73.44
2022-09-23T16:41:14.889Z,72.35
2022-09-23T16:43:41.996Z,73.07
2022-09-23T16:46:12.199Z,73.16
2022-09-23T16:48:44.988Z,73.45
2022-09-23T16:51:20.518Z,73.43
2022-09-23T16:53:51.480Z,73.28
2022-09-23T16:56:25.731Z,73.35
2022-09-23T16:58:54.887Z,73.92
2022-09-23T17:01:42.491Z,73.73
2022-09-23T17:04:10.737Z,74.18
2022-09-23T17:06:43.662Z,74.69
2022-09-23T17:09:11.538Z,74.70
2022-09-23T17:11:38.209Z,74.70
2022-09-23T17:14:05.851Z,74.28
2022-09-23T17:16:34.363Z,74.70
2022-09-23T17:19:07.174Z,75.20
2022-09-23T17:21:34.312Z,76.02
2022-09-23T17:24:01.420Z,77.31
2022-09-23T17:26:28.418Z,77.02
2022-09-23T17:28:57.368Z,78.09
2022-09-23T17:31:25.249Z,78.32
2022-09-23T17:33:52.722Z,80.06
2022-09-23T17:36:20.549Z,80.64
2022-09-23T17:38:48.461Z,80.40
2022-09-23T17:41:18.139Z,79.89
2022-09-23T17:43:46.786Z,80.17
2022-09-23T17:46:18.663Z,80.10
2022-09-23T17:48:45.578Z,80.38
2022-09-23T17:51:18.864Z,81.16
2022-09-23T17:53:47.843Z,81.77
2022-09-23T17:56:20.494Z,81.90
2022-09-23T17:58:48.880Z,82.37
2022-09-23T18:01:24.178Z,83.27
2022-09-23T18:03:55.130Z,83.19
2022-09-23T18:06:23.255Z,83.47
2022-09-23T18:08:50.969Z,83.62
2022-09-23T18:11:21.901Z,84.27
2022-09-23T18:13:53.537Z,84.28
2022-09-23T18:16:23.673Z,84.11
2022-09-23T18:18:55.430Z,83.54
2022-09-23T18:21:24.233Z,86.29
2022-09-23T18:23:51.147Z,84.25
2022-09-23T18:26:23.126Z,85.78
2022-09-23T18:28:52.863Z,84.80
2022-09-23T18:31:20.389Z,83.27
2022-09-23T18:33:51.560Z,87.00
2022-09-23T18:36:19.713Z,85.68
2022-09-23T18:38:47.024Z,84.96
2022-09-23T18:41:14.008Z,86.43
2022-09-23T18:43:45.110Z,86.39
2022-09-23T18:46:16.909Z,86.73
2022-09-23T18:49:03.310Z,87.67
2022-09-23T18:51:32.154Z,86.67
2022-09-23T18:54:00.780Z,86.04
2022-09-23T18:56:39.618Z,86.71
2022-09-23T18:59:07.395Z,86.14
2022-09-23T19:01:34.530Z,86.36
2022-09-23T19:04:04.597Z,87.58
2022-09-23T19:06:37.533Z,87.16
2022-09-23T19:09:06.024Z,86.85
2022-09-23T19:11:36.210Z,88.99
2022-09-23T19:14:05.993Z,88.55
2022-09-23T19:16:33.298Z,87.09
2022-09-23T19:19:00.663Z,90.40
2022-09-23T19:21:29.153Z,89.23
2022-09-23T19:23:59.094Z,87.82
2022-09-23T19:26:32.101Z,87.70
2022-09-23T19:29:00.556Z,87.90
2022-09-23T19:31:30.069Z,87.17
2022-09-23T19:34:13.930Z,87.73
2022-09-23T19:36:43.134Z,87.10
2022-09-23T19:39:18.557Z,86.86
2022-09-23T19:41:46.284Z,85.97
2022-09-23T19:44:13.155Z,84.41
2022-09-23T19:46:42.884Z,85.10
2022-09-23T19:49:11.090Z,84.95
2022-09-23T19:51:38.946Z,84.17
2022-09-23T19:54:07.395Z,84.44
2022-09-23T19:56:35.926Z,83.77
2022-09-23T19:59:05.945Z,85.69
2022-09-23T20:01:33.183Z,85.47
2022-09-23T20:04:00.313Z,83.92
2022-09-23T20:06:31.612Z,84.24
2022-09-23T20:09:01.051Z,85.23
2022-09-23T20:11:29.062Z,85.24
2022-09-23T20:14:01.810Z,83.90
2022-09-23T20:16:32.347Z,83.91
2022-09-23T20:19:00.244Z,84.57
2022-09-23T20:21:28.347Z,84.68
2022-09-23T20:23:55.561Z,84.51
2022-09-23T20:26:41.070Z,83.95
2022-09-23T20:29:08.955Z,86.38
2022-09-23T20:31:36.004Z,85.21
2022-09-23T20:34:05.772Z,84.48
2022-09-23T20:36:34.061Z,86.61
2022-09-23T20:39:05.386Z,85.49
2022-09-23T20:41:35.901Z,86.29
2022-09-23T20:44:02.968Z,85.10
2022-09-23T20:46:30.270Z,85.79
2022-09-23T20:48:57.077Z,85.30
2022-09-23T20:51:24.810Z,86.34
2022-09-23T20:53:53.046Z,89.08
2022-09-23T20:56:23.480Z,87.12
2022-09-23T20:58:52.566Z,87.23
2022-09-23T21:01:19.865Z,87.44
2022-09-23T21:03:48.606Z,87.38
2022-09-23T21:06:17.349Z,87.63
2022-09-23T21:08:44.721Z,88.25
2022-09-23T21:11:14.899Z,88.68
2022-09-23T21:13:46.824Z,87.36
2022-09-23T21:16:15.323Z,89.06
2022-09-23T21:18:42.014Z,91.58
2022-09-23T21:21:10.496Z,91.47
2022-09-23T21:23:39.090Z,90.65
2022-09-23T21:26:07.292Z,91.06
2022-09-23T21:28:36.234Z,90.24
2022-09-23T21:31:05.981Z,91.12
2022-09-23T21:33:33.079Z,91.24
2022-09-23T21:36:03.522Z,92.42
2022-09-23T21:38:37.212Z,92.84
2022-09-23T21:41:06.936Z,91.32
2022-09-23T21:43:36.006Z,92.97
2022-09-23T21:46:08.020Z,92.43
2022-09-23T21:48:37.618Z,92.46
2022-09-23T21:51:07.280Z,92.20
2022-09-23T21:53:36.406Z,92.98
2022-09-23T21:56:08.625Z,93.23
2022-09-23T21:58:37.379Z,95.99
2022-09-23T22:01:15.653Z,93.87
2022-09-23T22:03:43.518Z,93.05
2022-09-23T22:06:11.865Z,95.03
2022-09-23T22:08:40.947Z,91.69
2022-09-23T22:11:33.502Z,92.75
2022-09-23T22:14:02.157Z,94.75
2022-09-23T22:16:29.426Z,94.06
2022-09-23T22:18:58.292Z,93.41
2022-09-23T22:21:26.720Z,93.27
2022-09-23T22:23:58.474Z,93.78
2022-09-23T22:26:25.457Z,94.50
2022-09-23T22:29:10.640Z,93.68
2022-09-23T22:31:55.989Z,92.32
2022-09-23T22:34:49.193Z,92.51
2022-09-23T22:37:25.586Z,96.42
2022-09-23T22:39:52.925Z,91.67
2022-09-23T22:42:22.448Z,95.48
2022-09-23T22:44:50.238Z,93.73
2022-09-23T22:47:20.143Z,95.90
2022-09-23T22:49:47.535Z,95.30
2022-09-23T22:52:16.168Z,94.31
2022-09-23T22:54:43.066Z,94.29
2022-09-23T22:57:10.527Z,94.83
2022-09-23T22:59:37.530Z,95.25
2022-09-23T23:02:06.659Z,94.56
2022-09-23T23:04:33.564Z,94.35
2022-09-23T23:07:00.180Z,97.98
2022-09-23T23:09:26.689Z,98.90
2022-09-23T23:11:53.261Z,95.11
2022-09-23T23:14:20.015Z,97.98
2022-09-23T23:16:47.027Z,98.61
2022-09-23T23:19:17.168Z,94.53
2022-09-23T23:21:45.257Z,97.35
2022-09-23T23:24:20.582Z,95.75
2022-09-23T23:26:47.445Z,95.22
2022-09-23T23:29:15.944Z,96.16
2022-09-23T23:31:42.918Z,95.89
2022-09-23T23:34:20.976Z,95.58
2022-09-23T23:36:54.699Z,94.70
2022-09-23T23:39:23.773Z,93.83
2022-09-23T23:41:57.023Z,95.23
2022-09-23T23:44:25.515Z,93.91
2022-09-23T23:46:52.588Z,95.86
2022-09-23T23:49:19.548Z,98.37
2022-09-23T23:51:46.474Z,99.12
2022-09-23T23:54:13.040Z,95.87
2022-09-23T23:56:39.696Z,96.04
2022-09-23T23:59:06.432Z,97.93
